Terminal Aerodrome Forecast
Issued by NWS Wilmington, OH

Current Version | Previous Version | Text Only | Print | Product List | Glossary Off
Versions: 1 2 3 4 5 6 7 8 9 10 11 12 13 14 15 16 17 18 19

000
FTUS41 KILN 161133
TAFILN
TAF
KILN 161133Z 1612/1712 00000KT 5SM BR SCT200
      TEMPO 1612/1613 1/2SM FG
     FM161300 00000KT P6SM SCT250
     FM161800 18007KT P6SM BKN045
     FM170500 18006KT P6SM VCTS BKN050CB=

USA.gov is the U.S. government's official web portal to all federal, state and local government web resources and services.